sensor_id;sensor_type;location;lat;lon;timestamp;P1;durP1;ratioP1;P2;durP2;ratioP2
10082;SDS011;5080;48.528;8.078;2024-02-23T00:01:06;11.33;;;10.93;;
10082;SDS011;5080;48.528;8.078;2024-02-23T00:03:33;11.10;;;10.70;;
10082;SDS011;5080;48.528;8.078;2024-02-23T00:06:01;11.47;;;11.07;;
10082;SDS011;5080;48.528;8.078;2024-02-23T00:08:29;11.13;;;10.73;;
10082;SDS011;5080;48.528;8.078;2024-02-23T00:10:56;11.70;;;11.30;;
10082;SDS011;5080;48.528;8.078;2024-02-23T00:13:23;10.87;;;10.47;;
10082;SDS011;5080;48.528;8.078;2024-02-23T00:15:50;11.23;;;10.83;;
10082;SDS011;5080;48.528;8.078;2024-02-23T00:18:16;10.97;;;10.57;;
10082;SDS011;5080;48.528;8.078;2024-02-23T00:20:43;11.00;;;10.60;;
10082;SDS011;5080;48.528;8.078;2024-02-23T00:23:10;10.73;;;10.33;;
10082;SDS011;5080;48.528;8.078;2024-02-23T00:25:38;10.90;;;10.50;;
10082;SDS011;5080;48.528;8.078;2024-02-23T00:28:05;11.07;;;10.67;;
10082;SDS011;5080;48.528;8.078;2024-02-23T00:30:32;11.20;;;10.80;;
10082;SDS011;5080;48.528;8.078;2024-02-23T00:32:59;11.00;;;10.60;;
10082;SDS011;5080;48.528;8.078;2024-02-23T00:35:26;11.10;;;10.70;;
10082;SDS011;5080;48.528;8.078;2024-02-23T00:37:53;11.33;;;10.93;;
10082;SDS011;5080;48.528;8.078;2024-02-23T00:40:20;11.10;;;10.70;;
10082;SDS011;5080;48.528;8.078;2024-02-23T00:42:49;11.13;;;10.73;;
10082;SDS011;5080;48.528;8.078;2024-02-23T00:45:16;10.97;;;10.57;;
10082;SDS011;5080;48.528;8.078;2024-02-23T00:47:43;10.93;;;10.53;;
10082;SDS011;5080;48.528;8.078;2024-02-23T00:50:11;11.47;;;11.07;;
10082;SDS011;5080;48.528;8.078;2024-02-23T00:52:37;11.00;;;10.60;;
10082;SDS011;5080;48.528;8.078;2024-02-23T00:55:04;10.83;;;10.43;;
10082;SDS011;5080;48.528;8.078;2024-02-23T00:57:33;11.17;;;10.77;;
10082;SDS011;5080;48.528;8.078;2024-02-23T01:00:03;11.37;;;10.97;;
10082;SDS011;5080;48.528;8.078;2024-02-23T01:02:31;12.63;;;12.23;;
10082;SDS011;5080;48.528;8.078;2024-02-23T01:04:58;12.20;;;11.80;;
10082;SDS011;5080;48.528;8.078;2024-02-23T01:07:25;12.27;;;11.87;;
10082;SDS011;5080;48.528;8.078;2024-02-23T01:09:52;11.80;;;11.40;;
10082;SDS011;5080;48.528;8.078;2024-02-23T01:12:19;12.15;;;11.75;;
10082;SDS011;5080;48.528;8.078;2024-02-23T01:14:45;12.83;;;12.43;;
10082;SDS011;5080;48.528;8.078;2024-02-23T01:17:14;11.70;;;11.30;;
10082;SDS011;5080;48.528;8.078;2024-02-23T01:19:41;12.13;;;11.73;;
10082;SDS011;5080;48.528;8.078;2024-02-23T01:22:09;11.57;;;11.17;;
10082;SDS011;5080;48.528;8.078;2024-02-23T01:24:36;13.23;;;12.73;;
10082;SDS011;5080;48.528;8.078;2024-02-23T01:27:03;11.70;;;11.30;;
10082;SDS011;5080;48.528;8.078;2024-02-23T01:29:30;12.50;;;12.00;;
10082;SDS011;5080;48.528;8.078;2024-02-23T01:31:56;12.70;;;12.23;;
10082;SDS011;5080;48.528;8.078;2024-02-23T01:34:25;12.33;;;11.83;;
10082;SDS011;5080;48.528;8.078;2024-02-23T01:36:52;13.27;;;12.77;;
10082;SDS011;5080;48.528;8.078;2024-02-23T01:39:18;12.13;;;11.73;;
10082;SDS011;5080;48.528;8.078;2024-02-23T01:41:45;12.13;;;11.73;;
10082;SDS011;5080;48.528;8.078;2024-02-23T01:44:12;12.40;;;12.00;;
10082;SDS011;5080;48.528;8.078;2024-02-23T01:46:40;13.97;;;13.47;;
10082;SDS011;5080;48.528;8.078;2024-02-23T01:49:07;12.37;;;11.97;;
10082;SDS011;5080;48.528;8.078;2024-02-23T01:51:36;12.03;;;11.63;;
10082;SDS011;5080;48.528;8.078;2024-02-23T01:54:03;11.70;;;11.30;;
10082;SDS011;5080;48.528;8.078;2024-02-23T01:56:30;12.80;;;12.30;;
10082;SDS011;5080;48.528;8.078;2024-02-23T01:58:58;12.03;;;11.63;;
10082;SDS011;5080;48.528;8.078;2024-02-23T02:01:28;11.70;;;11.30;;
10082;SDS011;5080;48.528;8.078;2024-02-23T02:03:55;11.70;;;11.30;;
10082;SDS011;5080;48.528;8.078;2024-02-23T02:06:22;12.30;;;11.90;;
10082;SDS011;5080;48.528;8.078;2024-02-23T02:08:50;12.00;;;11.60;;
10082;SDS011;5080;48.528;8.078;2024-02-23T02:11:17;12.53;;;12.03;;
10082;SDS011;5080;48.528;8.078;2024-02-23T02:13:44;11.90;;;11.50;;
10082;SDS011;5080;48.528;8.078;2024-02-23T02:16:11;11.90;;;11.50;;
10082;SDS011;5080;48.528;8.078;2024-02-23T02:18:38;12.07;;;11.67;;
10082;SDS011;5080;48.528;8.078;2024-02-23T02:21:04;11.93;;;11.53;;
10082;SDS011;5080;48.528;8.078;2024-02-23T02:23:31;11.93;;;11.53;;
10082;SDS011;5080;48.528;8.078;2024-02-23T02:25:59;12.48;;;12.05;;
10082;SDS011;5080;48.528;8.078;2024-02-23T02:28:26;12.57;;;12.18;;
10082;SDS011;5080;48.528;8.078;2024-02-23T02:30:52;12.43;;;12.00;;
10082;SDS011;5080;48.528;8.078;2024-02-23T02:33:19;12.27;;;11.87;;
10082;SDS011;5080;48.528;8.078;2024-02-23T02:35:46;12.35;;;11.95;;
10082;SDS011;5080;48.528;8.078;2024-02-23T02:38:13;12.47;;;12.07;;
10082;SDS011;5080;48.528;8.078;2024-02-23T02:40:40;12.60;;;12.10;;
10082;SDS011;5080;48.528;8.078;2024-02-23T02:43:08;12.30;;;11.90;;
10082;SDS011;5080;48.528;8.078;2024-02-23T02:45:34;12.20;;;11.80;;
10082;SDS011;5080;48.528;8.078;2024-02-23T02:48:01;12.73;;;12.23;;
10082;SDS011;5080;48.528;8.078;2024-02-23T02:50:28;12.27;;;11.87;;
10082;SDS011;5080;48.528;8.078;2024-02-23T02:52:55;12.27;;;11.87;;
10082;SDS011;5080;48.528;8.078;2024-02-23T02:55:22;12.70;;;12.20;;
10082;SDS011;5080;48.528;8.078;2024-02-23T02:57:49;12.77;;;12.27;;
10082;SDS011;5080;48.528;8.078;2024-02-23T03:00:17;12.57;;;12.17;;
10082;SDS011;5080;48.528;8.078;2024-02-23T03:02:43;12.83;;;12.33;;
10082;SDS011;5080;48.528;8.078;2024-02-23T03:05:10;12.57;;;12.17;;
10082;SDS011;5080;48.528;8.078;2024-02-23T03:07:37;12.20;;;11.70;;
10082;SDS011;5080;48.528;8.078;2024-02-23T03:10:04;11.90;;;11.50;;
10082;SDS011;5080;48.528;8.078;2024-02-23T03:12:31;12.60;;;12.20;;
10082;SDS011;5080;48.528;8.078;2024-02-23T03:14:58;12.63;;;12.23;;
10082;SDS011;5080;48.528;8.078;2024-02-23T03:17:28;13.57;;;12.97;;
10082;SDS011;5080;48.528;8.078;2024-02-23T03:19:55;12.77;;;12.27;;
10082;SDS011;5080;48.528;8.078;2024-02-23T03:22:22;12.77;;;12.33;;
10082;SDS011;5080;48.528;8.078;2024-02-23T03:24:49;11.80;;;11.40;;
10082;SDS011;5080;48.528;8.078;2024-02-23T03:27:16;11.93;;;11.53;;
10082;SDS011;5080;48.528;8.078;2024-02-23T03:29:43;12.20;;;11.80;;
10082;SDS011;5080;48.528;8.078;2024-02-23T03:32:09;12.43;;;12.03;;
10082;SDS011;5080;48.528;8.078;2024-02-23T03:34:37;12.57;;;12.07;;
10082;SDS011;5080;48.528;8.078;2024-02-23T03:37:04;11.90;;;11.50;;
10082;SDS011;5080;48.528;8.078;2024-02-23T03:39:31;12.73;;;12.23;;
10082;SDS011;5080;48.528;8.078;2024-02-23T03:41:58;12.07;;;11.67;;
10082;SDS011;5080;48.528;8.078;2024-02-23T03:44:24;12.27;;;11.87;;
10082;SDS011;5080;48.528;8.078;2024-02-23T03:46:51;12.10;;;11.70;;
10082;SDS011;5080;48.528;8.078;2024-02-23T03:49:18;12.37;;;11.97;;
10082;SDS011;5080;48.528;8.078;2024-02-23T03:51:46;11.67;;;11.27;;
10082;SDS011;5080;48.528;8.078;2024-02-23T03:54:13;11.87;;;11.47;;
10082;SDS011;5080;48.528;8.078;2024-02-23T03:56:40;13.70;;;13.20;;
10082;SDS011;5080;48.528;8.078;2024-02-23T03:59:07;11.40;;;11.00;;
10082;SDS011;5080;48.528;8.078;2024-02-23T04:01:35;11.63;;;11.23;;
10082;SDS011;5080;48.528;8.078;2024-02-23T04:04:02;11.67;;;11.27;;
10082;SDS011;5080;48.528;8.078;2024-02-23T04:06:29;12.43;;;11.93;;
10082;SDS011;5080;48.528;8.078;2024-02-23T04:08:58;11.03;;;10.63;;
10082;SDS011;5080;48.528;8.078;2024-02-23T04:11:24;11.37;;;10.97;;
10082;SDS011;5080;48.528;8.078;2024-02-23T04:13:51;10.50;;;10.10;;
10082;SDS011;5080;48.528;8.078;2024-02-23T04:16:18;10.50;;;10.10;;
10082;SDS011;5080;48.528;8.078;2024-02-23T04:18:48;11.50;;;11.10;;
10082;SDS011;5080;48.528;8.078;2024-02-23T04:21:15;11.27;;;10.87;;
10082;SDS011;5080;48.528;8.078;2024-02-23T04:23:42;12.50;;;11.90;;
10082;SDS011;5080;48.528;8.078;2024-02-23T04:26:11;10.80;;;10.40;;
10082;SDS011;5080;48.528;8.078;2024-02-23T04:28:38;10.97;;;10.57;;
10082;SDS011;5080;48.528;8.078;2024-02-23T04:31:05;10.50;;;10.10;;
10082;SDS011;5080;48.528;8.078;2024-02-23T04:33:32;10.60;;;10.20;;
10082;SDS011;5080;48.528;8.078;2024-02-23T04:36:00;10.87;;;10.47;;
10082;SDS011;5080;48.528;8.078;2024-02-23T04:38:26;10.13;;;9.83;;
10082;SDS011;5080;48.528;8.078;2024-02-23T04:40:53;10.77;;;10.37;;
10082;SDS011;5080;48.528;8.078;2024-02-23T04:43:21;10.90;;;10.50;;
10082;SDS011;5080;48.528;8.078;2024-02-23T04:45:48;10.50;;;10.10;;
10082;SDS011;5080;48.528;8.078;2024-02-23T04:48:15;10.80;;;10.40;;
10082;SDS011;5080;48.528;8.078;2024-02-23T04:50:41;10.50;;;10.10;;
10082;SDS011;5080;48.528;8.078;2024-02-23T04:53:08;10.70;;;10.30;;
10082;SDS011;5080;48.528;8.078;2024-02-23T04:55:35;10.80;;;10.40;;
10082;SDS011;5080;48.528;8.078;2024-02-23T04:58:01;10.80;;;10.40;;
10082;SDS011;5080;48.528;8.078;2024-02-23T05:00:30;11.17;;;10.77;;
10082;SDS011;5080;48.528;8.078;2024-02-23T05:02:58;11.03;;;10.63;;
10082;SDS011;5080;48.528;8.078;2024-02-23T05:05:28;10.27;;;9.87;;
10082;SDS011;5080;48.528;8.078;2024-02-23T05:07:54;10.60;;;10.20;;
10082;SDS011;5080;48.528;8.078;2024-02-23T05:10:21;10.70;;;10.30;;
10082;SDS011;5080;48.528;8.078;2024-02-23T05:12:48;10.90;;;10.50;;
10082;SDS011;5080;48.528;8.078;2024-02-23T05:15:14;10.80;;;10.40;;
10082;SDS011;5080;48.528;8.078;2024-02-23T05:17:43;10.63;;;10.23;;
10082;SDS011;5080;48.528;8.078;2024-02-23T05:20:10;10.57;;;10.17;;
10082;SDS011;5080;48.528;8.078;2024-02-23T05:22:38;10.90;;;10.50;;
10082;SDS011;5080;48.528;8.078;2024-02-23T05:25:05;10.67;;;10.27;;
10082;SDS011;5080;48.528;8.078;2024-02-23T05:27:32;10.73;;;10.33;;
10082;SDS011;5080;48.528;8.078;2024-02-23T05:29:59;10.90;;;10.50;;
10082;SDS011;5080;48.528;8.078;2024-02-23T05:32:26;10.93;;;10.53;;
10082;SDS011;5080;48.528;8.078;2024-02-23T05:34:54;10.97;;;10.57;;
10082;SDS011;5080;48.528;8.078;2024-02-23T05:37:21;11.17;;;10.77;;
10082;SDS011;5080;48.528;8.078;2024-02-23T05:39:49;11.70;;;11.20;;
10082;SDS011;5080;48.528;8.078;2024-02-23T05:42:15;11.30;;;10.90;;
10082;SDS011;5080;48.528;8.078;2024-02-23T05:44:43;11.87;;;11.47;;
10082;SDS011;5080;48.528;8.078;2024-02-23T05:47:10;11.23;;;10.83;;
10082;SDS011;5080;48.528;8.078;2024-02-23T05:49:38;11.00;;;10.60;;
10082;SDS011;5080;48.528;8.078;2024-02-23T05:52:06;11.33;;;10.93;;
10082;SDS011;5080;48.528;8.078;2024-02-23T05:54:33;11.67;;;11.27;;
10082;SDS011;5080;48.528;8.078;2024-02-23T05:57:00;11.37;;;10.90;;
10082;SDS011;5080;48.528;8.078;2024-02-23T05:59:27;10.80;;;10.40;;
10082;SDS011;5080;48.528;8.078;2024-02-23T06:01:54;10.90;;;10.50;;
10082;SDS011;5080;48.528;8.078;2024-02-23T06:04:22;10.47;;;10.07;;
10082;SDS011;5080;48.528;8.078;2024-02-23T06:06:49;11.30;;;10.80;;
10082;SDS011;5080;48.528;8.078;2024-02-23T06:09:17;11.13;;;10.73;;
10082;SDS011;5080;48.528;8.078;2024-02-23T06:11:45;11.23;;;10.83;;
10082;SDS011;5080;48.528;8.078;2024-02-23T06:14:12;10.67;;;10.27;;
10082;SDS011;5080;48.528;8.078;2024-02-23T06:16:38;12.73;;;12.23;;
10082;SDS011;5080;48.528;8.078;2024-02-23T06:19:05;11.43;;;11.03;;
10082;SDS011;5080;48.528;8.078;2024-02-23T06:21:32;12.40;;;11.90;;
10082;SDS011;5080;48.528;8.078;2024-02-23T06:23:58;12.45;;;11.95;;
10082;SDS011;5080;48.528;8.078;2024-02-23T06:26:27;12.33;;;11.83;;
10082;SDS011;5080;48.528;8.078;2024-02-23T06:28:53;12.37;;;11.87;;
10082;SDS011;5080;48.528;8.078;2024-02-23T06:31:20;11.52;;;11.13;;
10082;SDS011;5080;48.528;8.078;2024-02-23T06:33:47;12.93;;;12.43;;
10082;SDS011;5080;48.528;8.078;2024-02-23T06:36:14;12.13;;;11.63;;
10082;SDS011;5080;48.528;8.078;2024-02-23T06:38:41;11.03;;;10.63;;
10082;SDS011;5080;48.528;8.078;2024-02-23T06:41:07;10.73;;;10.33;;
10082;SDS011;5080;48.528;8.078;2024-02-23T06:43:37;11.10;;;10.70;;
10082;SDS011;5080;48.528;8.078;2024-02-23T06:46:05;11.07;;;10.67;;
10082;SDS011;5080;48.528;8.078;2024-02-23T06:48:33;10.77;;;10.37;;
10082;SDS011;5080;48.528;8.078;2024-02-23T06:51:00;11.10;;;10.70;;
10082;SDS011;5080;48.528;8.078;2024-02-23T06:53:27;11.07;;;10.67;;
10082;SDS011;5080;48.528;8.078;2024-02-23T06:55:53;11.60;;;11.20;;
10082;SDS011;5080;48.528;8.078;2024-02-23T06:58:20;11.40;;;11.00;;
10082;SDS011;5080;48.528;8.078;2024-02-23T07:00:48;11.53;;;11.03;;
10082;SDS011;5080;48.528;8.078;2024-02-23T07:03:15;11.00;;;10.60;;
10082;SDS011;5080;48.528;8.078;2024-02-23T07:05:43;10.93;;;10.53;;
10082;SDS011;5080;48.528;8.078;2024-02-23T07:08:10;10.97;;;10.57;;
10082;SDS011;5080;48.528;8.078;2024-02-23T07:10:36;11.10;;;10.70;;
10082;SDS011;5080;48.528;8.078;2024-02-23T07:13:03;12.60;;;12.00;;
10082;SDS011;5080;48.528;8.078;2024-02-23T07:15:30;11.80;;;11.30;;
10082;SDS011;5080;48.528;8.078;2024-02-23T07:17:59;11.40;;;11.00;;
10082;SDS011;5080;48.528;8.078;2024-02-23T07:20:25;10.53;;;10.13;;
10082;SDS011;5080;48.528;8.078;2024-02-23T07:22:52;10.77;;;10.37;;
10082;SDS011;5080;48.528;8.078;2024-02-23T07:25:19;11.43;;;11.03;;
10082;SDS011;5080;48.528;8.078;2024-02-23T07:27:46;10.87;;;10.47;;
10082;SDS011;5080;48.528;8.078;2024-02-23T07:30:14;10.80;;;10.40;;
10082;SDS011;5080;48.528;8.078;2024-02-23T07:32:42;10.90;;;10.50;;
10082;SDS011;5080;48.528;8.078;2024-02-23T07:35:10;10.70;;;10.30;;
10082;SDS011;5080;48.528;8.078;2024-02-23T07:37:37;10.60;;;10.20;;
10082;SDS011;5080;48.528;8.078;2024-02-23T07:40:04;10.90;;;10.50;;
10082;SDS011;5080;48.528;8.078;2024-02-23T07:42:32;10.80;;;10.40;;
10082;SDS011;5080;48.528;8.078;2024-02-23T07:45:00;10.80;;;10.40;;
10082;SDS011;5080;48.528;8.078;2024-02-23T07:47:29;12.23;;;11.27;;
10082;SDS011;5080;48.528;8.078;2024-02-23T07:49:56;10.60;;;10.20;;
10082;SDS011;5080;48.528;8.078;2024-02-23T07:52:24;11.47;;;10.97;;
10082;SDS011;5080;48.528;8.078;2024-02-23T07:54:51;11.10;;;10.70;;
10082;SDS011;5080;48.528;8.078;2024-02-23T07:57:18;10.90;;;10.50;;
10082;SDS011;5080;48.528;8.078;2024-02-23T07:59:45;10.90;;;10.50;;
10082;SDS011;5080;48.528;8.078;2024-02-23T08:02:12;11.10;;;10.70;;
10082;SDS011;5080;48.528;8.078;2024-02-23T08:04:39;11.43;;;11.03;;
10082;SDS011;5080;48.528;8.078;2024-02-23T08:07:07;11.20;;;10.80;;
10082;SDS011;5080;48.528;8.078;2024-02-23T08:09:35;11.10;;;10.70;;
10082;SDS011;5080;48.528;8.078;2024-02-23T08:12:02;11.17;;;10.77;;
10082;SDS011;5080;48.528;8.078;2024-02-23T08:14:29;10.87;;;10.43;;
10082;SDS011;5080;48.528;8.078;2024-02-23T08:16:55;11.57;;;11.17;;
10082;SDS011;5080;48.528;8.078;2024-02-23T08:19:22;12.00;;;11.53;;
10082;SDS011;5080;48.528;8.078;2024-02-23T08:21:49;12.00;;;11.50;;
10082;SDS011;5080;48.528;8.078;2024-02-23T08:24:15;11.57;;;11.13;;
10082;SDS011;5080;48.528;8.078;2024-02-23T08:26:44;12.63;;;12.13;;
10082;SDS011;5080;48.528;8.078;2024-02-23T08:29:10;11.43;;;11.03;;
10082;SDS011;5080;48.528;8.078;2024-02-23T08:31:37;11.77;;;11.37;;
10082;SDS011;5080;48.528;8.078;2024-02-23T08:34:04;11.60;;;11.20;;
10082;SDS011;5080;48.528;8.078;2024-02-23T08:36:31;12.87;;;12.37;;
10082;SDS011;5080;48.528;8.078;2024-02-23T08:38:58;11.57;;;11.17;;
10082;SDS011;5080;48.528;8.078;2024-02-23T08:41:25;11.37;;;10.97;;
10082;SDS011;5080;48.528;8.078;2024-02-23T08:43:53;11.33;;;10.93;;
10082;SDS011;5080;48.528;8.078;2024-02-23T08:46:20;12.10;;;11.70;;
10082;SDS011;5080;48.528;8.078;2024-02-23T08:48:47;11.83;;;11.37;;
10082;SDS011;5080;48.528;8.078;2024-02-23T08:51:14;11.77;;;11.37;;
10082;SDS011;5080;48.528;8.078;2024-02-23T08:53:41;12.10;;;11.60;;
10082;SDS011;5080;48.528;8.078;2024-02-23T08:56:08;12.73;;;12.23;;
10082;SDS011;5080;48.528;8.078;2024-02-23T08:58:35;12.30;;;11.80;;
10082;SDS011;5080;48.528;8.078;2024-02-23T09:01:03;12.93;;;12.43;;
10082;SDS011;5080;48.528;8.078;2024-02-23T09:03:30;12.77;;;12.27;;
10082;SDS011;5080;48.528;8.078;2024-02-23T09:05:57;12.20;;;11.80;;
10082;SDS011;5080;48.528;8.078;2024-02-23T09:08:23;12.13;;;11.73;;
10082;SDS011;5080;48.528;8.078;2024-02-23T09:10:50;12.63;;;12.13;;
10082;SDS011;5080;48.528;8.078;2024-02-23T09:13:17;12.57;;;12.07;;
10082;SDS011;5080;48.528;8.078;2024-02-23T09:15:44;13.10;;;12.60;;
10082;SDS011;5080;48.528;8.078;2024-02-23T09:18:12;13.67;;;13.17;;
10082;SDS011;5080;48.528;8.078;2024-02-23T09:20:39;15.17;;;14.67;;
10082;SDS011;5080;48.528;8.078;2024-02-23T09:23:06;14.87;;;14.37;;
10082;SDS011;5080;48.528;8.078;2024-02-23T09:25:32;14.77;;;14.20;;
10082;SDS011;5080;48.528;8.078;2024-02-23T09:27:59;15.00;;;14.50;;
10082;SDS011;5080;48.528;8.078;2024-02-23T09:30:26;14.03;;;13.53;;
10082;SDS011;5080;48.528;8.078;2024-02-23T09:32:53;14.50;;;14.00;;
10082;SDS011;5080;48.528;8.078;2024-02-23T09:35:21;13.63;;;13.13;;
10082;SDS011;5080;48.528;8.078;2024-02-23T09:37:48;13.50;;;13.00;;
10082;SDS011;5080;48.528;8.078;2024-02-23T09:40:14;13.27;;;12.77;;
10082;SDS011;5080;48.528;8.078;2024-02-23T09:42:41;13.83;;;13.33;;
10082;SDS011;5080;48.528;8.078;2024-02-23T09:45:09;14.40;;;13.90;;
10082;SDS011;5080;48.528;8.078;2024-02-23T09:47:37;20.13;;;19.43;;
10082;SDS011;5080;48.528;8.078;2024-02-23T09:50:05;14.63;;;14.13;;
10082;SDS011;5080;48.528;8.078;2024-02-23T09:52:36;19.07;;;18.37;;
10082;SDS011;5080;48.528;8.078;2024-02-23T09:55:02;19.50;;;18.80;;
10082;SDS011;5080;48.528;8.078;2024-02-23T09:57:29;16.47;;;15.87;;
10082;SDS011;5080;48.528;8.078;2024-02-23T09:59:56;14.93;;;14.43;;
10082;SDS011;5080;48.528;8.078;2024-02-23T10:02:23;15.10;;;14.60;;
10082;SDS011;5080;48.528;8.078;2024-02-23T10:04:51;16.10;;;15.50;;
10082;SDS011;5080;48.528;8.078;2024-02-23T10:07:20;18.20;;;17.50;;
10082;SDS011;5080;48.528;8.078;2024-02-23T10:09:48;19.20;;;18.50;;
10082;SDS011;5080;48.528;8.078;2024-02-23T10:12:15;20.53;;;19.83;;
10082;SDS011;5080;48.528;8.078;2024-02-23T10:14:43;22.37;;;21.53;;
10082;SDS011;5080;48.528;8.078;2024-02-23T10:17:09;19.53;;;18.83;;
10082;SDS011;5080;48.528;8.078;2024-02-23T10:19:36;18.63;;;18.00;;
10082;SDS011;5080;48.528;8.078;2024-02-23T10:22:03;18.53;;;17.83;;
10082;SDS011;5080;48.528;8.078;2024-02-23T10:24:31;20.33;;;19.63;;
10082;SDS011;5080;48.528;8.078;2024-02-23T10:26:59;20.50;;;19.80;;
10082;SDS011;5080;48.528;8.078;2024-02-23T10:29:27;20.47;;;19.77;;
10082;SDS011;5080;48.528;8.078;2024-02-23T10:31:54;19.70;;;19.00;;
10082;SDS011;5080;48.528;8.078;2024-02-23T10:34:23;16.77;;;16.17;;
10082;SDS011;5080;48.528;8.078;2024-02-23T10:36:50;18.20;;;17.60;;
10082;SDS011;5080;48.528;8.078;2024-02-23T10:39:19;19.93;;;19.23;;
10082;SDS011;5080;48.528;8.078;2024-02-23T10:41:51;19.30;;;18.60;;
10082;SDS011;5080;48.528;8.078;2024-02-23T10:44:24;18.47;;;17.80;;
10082;SDS011;5080;48.528;8.078;2024-02-23T10:46:52;16.70;;;16.10;;
10082;SDS011;5080;48.528;8.078;2024-02-23T10:49:20;17.43;;;16.83;;
10082;SDS011;5080;48.528;8.078;2024-02-23T10:51:51;19.90;;;19.20;;
10082;SDS011;5080;48.528;8.078;2024-02-23T10:54:18;18.97;;;18.27;;
10082;SDS011;5080;48.528;8.078;2024-02-23T10:56:46;19.43;;;18.73;;
10082;SDS011;5080;48.528;8.078;2024-02-23T10:59:15;18.25;;;17.63;;
10082;SDS011;5080;48.528;8.078;2024-02-23T11:01:44;20.30;;;19.50;;
10082;SDS011;5080;48.528;8.078;2024-02-23T11:04:12;18.30;;;17.60;;
10082;SDS011;5080;48.528;8.078;2024-02-23T11:06:40;19.13;;;18.43;;
10082;SDS011;5080;48.528;8.078;2024-02-23T11:09:08;17.23;;;16.63;;
10082;SDS011;5080;48.528;8.078;2024-02-23T11:11:38;16.63;;;16.03;;
10082;SDS011;5080;48.528;8.078;2024-02-23T11:14:07;16.63;;;16.03;;
10082;SDS011;5080;48.528;8.078;2024-02-23T11:16:38;17.40;;;16.70;;
10082;SDS011;5080;48.528;8.078;2024-02-23T11:19:08;15.97;;;15.37;;
10082;SDS011;5080;48.528;8.078;2024-02-23T11:21:36;15.77;;;15.27;;
10082;SDS011;5080;48.528;8.078;2024-02-23T11:24:04;16.37;;;15.77;;
10082;SDS011;5080;48.528;8.078;2024-02-23T11:26:31;16.47;;;15.87;;
10082;SDS011;5080;48.528;8.078;2024-02-23T11:29:09;17.10;;;16.50;;
10082;SDS011;5080;48.528;8.078;2024-02-23T11:31:36;16.10;;;15.50;;
10082;SDS011;5080;48.528;8.078;2024-02-23T11:34:11;15.73;;;15.20;;
10082;SDS011;5080;48.528;8.078;2024-02-23T11:36:38;16.07;;;15.47;;
10082;SDS011;5080;48.528;8.078;2024-02-23T11:39:05;15.17;;;14.67;;
10082;SDS011;5080;48.528;8.078;2024-02-23T11:41:32;14.73;;;14.23;;
10082;SDS011;5080;48.528;8.078;2024-02-23T11:43:58;14.93;;;14.40;;
10082;SDS011;5080;48.528;8.078;2024-02-23T11:46:25;15.43;;;14.83;;
10082;SDS011;5080;48.528;8.078;2024-02-23T11:48:52;14.60;;;14.10;;
10082;SDS011;5080;48.528;8.078;2024-02-23T11:51:20;15.57;;;15.07;;
10082;SDS011;5080;48.528;8.078;2024-02-23T11:53:48;16.40;;;15.80;;
10082;SDS011;5080;48.528;8.078;2024-02-23T11:56:15;15.00;;;14.40;;
10082;SDS011;5080;48.528;8.078;2024-02-23T11:58:43;15.97;;;15.37;;
10082;SDS011;5080;48.528;8.078;2024-02-23T12:01:10;15.63;;;15.13;;
10082;SDS011;5080;48.528;8.078;2024-02-23T12:03:37;14.87;;;14.37;;
10082;SDS011;5080;48.528;8.078;2024-02-23T12:06:04;14.87;;;14.33;;
10082;SDS011;5080;48.528;8.078;2024-02-23T12:08:34;15.50;;;14.93;;
10082;SDS011;5080;48.528;8.078;2024-02-23T12:11:03;15.03;;;14.53;;
10082;SDS011;5080;48.528;8.078;2024-02-23T12:13:32;16.07;;;15.47;;
10082;SDS011;5080;48.528;8.078;2024-02-23T12:15:59;15.77;;;15.17;;
10082;SDS011;5080;48.528;8.078;2024-02-23T12:18:27;15.67;;;14.97;;
10082;SDS011;5080;48.528;8.078;2024-02-23T12:20:58;15.47;;;14.87;;
10082;SDS011;5080;48.528;8.078;2024-02-23T12:23:26;15.50;;;15.00;;
10082;SDS011;5080;48.528;8.078;2024-02-23T12:25:54;16.67;;;16.07;;
10082;SDS011;5080;48.528;8.078;2024-02-23T12:28:24;15.37;;;14.80;;
10082;SDS011;5080;48.528;8.078;2024-02-23T12:30:58;14.93;;;14.43;;
10082;SDS011;5080;48.528;8.078;2024-02-23T12:33:26;15.10;;;14.60;;
10082;SDS011;5080;48.528;8.078;2024-02-23T12:35:54;16.13;;;15.53;;
10082;SDS011;5080;48.528;8.078;2024-02-23T12:38:21;16.30;;;15.70;;
10082;SDS011;5080;48.528;8.078;2024-02-23T12:40:48;15.80;;;15.20;;
10082;SDS011;5080;48.528;8.078;2024-02-23T12:43:16;16.10;;;15.50;;
10082;SDS011;5080;48.528;8.078;2024-02-23T12:45:46;16.47;;;15.87;;
10082;SDS011;5080;48.528;8.078;2024-02-23T12:48:14;15.53;;;15.03;;
10082;SDS011;5080;48.528;8.078;2024-02-23T12:50:41;17.20;;;16.53;;
10082;SDS011;5080;48.528;8.078;2024-02-23T12:53:09;16.20;;;15.60;;
10082;SDS011;5080;48.528;8.078;2024-02-23T12:55:37;16.70;;;16.10;;
10082;SDS011;5080;48.528;8.078;2024-02-23T12:58:04;19.57;;;18.87;;
10082;SDS011;5080;48.528;8.078;2024-02-23T13:00:32;20.80;;;20.10;;
10082;SDS011;5080;48.528;8.078;2024-02-23T13:02:59;20.80;;;20.10;;
10082;SDS011;5080;48.528;8.078;2024-02-23T13:05:25;19.93;;;19.23;;
10082;SDS011;5080;48.528;8.078;2024-02-23T13:07:52;19.60;;;18.90;;
10082;SDS011;5080;48.528;8.078;2024-02-23T13:10:19;17.53;;;16.93;;
10082;SDS011;5080;48.528;8.078;2024-02-23T13:12:46;18.90;;;18.10;;
10082;SDS011;5080;48.528;8.078;2024-02-23T13:15:14;18.40;;;17.70;;
10082;SDS011;5080;48.528;8.078;2024-02-23T13:17:42;18.83;;;18.13;;
10082;SDS011;5080;48.528;8.078;2024-02-23T13:20:10;20.37;;;19.67;;
10082;SDS011;5080;48.528;8.078;2024-02-23T13:22:38;18.47;;;17.83;;
10082;SDS011;5080;48.528;8.078;2024-02-23T13:25:05;18.93;;;18.23;;
10082;SDS011;5080;48.528;8.078;2024-02-23T13:27:32;19.07;;;18.37;;
10082;SDS011;5080;48.528;8.078;2024-02-23T13:29:59;17.57;;;16.87;;
10082;SDS011;5080;48.528;8.078;2024-02-23T13:32:26;17.60;;;17.00;;
10082;SDS011;5080;48.528;8.078;2024-02-23T13:34:54;17.70;;;17.10;;
10082;SDS011;5080;48.528;8.078;2024-02-23T13:37:21;19.27;;;18.57;;
10082;SDS011;5080;48.528;8.078;2024-02-23T13:39:47;17.60;;;17.00;;
10082;SDS011;5080;48.528;8.078;2024-02-23T13:42:14;17.27;;;16.67;;
10082;SDS011;5080;48.528;8.078;2024-02-23T13:44:41;17.53;;;16.93;;
10082;SDS011;5080;48.528;8.078;2024-02-23T13:47:07;18.33;;;17.70;;
10082;SDS011;5080;48.528;8.078;2024-02-23T13:49:34;19.00;;;18.30;;
10082;SDS011;5080;48.528;8.078;2024-02-23T13:52:02;18.00;;;17.40;;
10082;SDS011;5080;48.528;8.078;2024-02-23T13:54:29;17.57;;;16.97;;
10082;SDS011;5080;48.528;8.078;2024-02-23T13:56:56;17.87;;;17.27;;
10082;SDS011;5080;48.528;8.078;2024-02-23T13:59:23;19.70;;;19.00;;
10082;SDS011;5080;48.528;8.078;2024-02-23T14:01:49;15.10;;;14.60;;
10082;SDS011;5080;48.528;8.078;2024-02-23T14:04:16;17.13;;;16.53;;
10082;SDS011;5080;48.528;8.078;2024-02-23T14:06:43;15.97;;;15.47;;
10082;SDS011;5080;48.528;8.078;2024-02-23T14:09:11;16.92;;;16.33;;
10082;SDS011;5080;48.528;8.078;2024-02-23T14:11:38;15.47;;;14.97;;
10082;SDS011;5080;48.528;8.078;2024-02-23T14:14:06;14.97;;;14.47;;
10082;SDS011;5080;48.528;8.078;2024-02-23T14:16:33;14.53;;;14.03;;
10082;SDS011;5080;48.528;8.078;2024-02-23T14:18:59;15.60;;;15.10;;
10082;SDS011;5080;48.528;8.078;2024-02-23T14:21:26;14.70;;;14.20;;
10082;SDS011;5080;48.528;8.078;2024-02-23T14:23:53;15.33;;;14.73;;
10082;SDS011;5080;48.528;8.078;2024-02-23T14:26:21;14.80;;;14.30;;
10082;SDS011;5080;48.528;8.078;2024-02-23T14:28:48;15.13;;;14.63;;
10082;SDS011;5080;48.528;8.078;2024-02-23T14:31:15;13.80;;;13.30;;
10082;SDS011;5080;48.528;8.078;2024-02-23T14:33:42;13.87;;;13.37;;
10082;SDS011;5080;48.528;8.078;2024-02-23T14:36:09;13.57;;;13.10;;